sensor_id;sensor_type;location;lat;lon;timestamp;pressure;altitude;pressure_sealevel;temperature;humidity
29909;BME280;36247;51.952;6.146;2023-05-25T00:01:13;102475.28;;;10.33;100.00
29909;BME280;36247;51.952;6.146;2023-05-25T00:03:40;102482.00;;;10.24;100.00
29909;BME280;36247;51.952;6.146;2023-05-25T00:06:06;102485.88;;;10.12;100.00
29909;BME280;36247;51.952;6.146;2023-05-25T00:08:32;102490.41;;;10.14;100.00
29909;BME280;36247;51.952;6.146;2023-05-25T00:10:58;102493.81;;;10.12;100.00
29909;BME280;36247;51.952;6.146;2023-05-25T00:13:23;102488.97;;;10.01;100.00
29909;BME280;36247;51.952;6.146;2023-05-25T00:15:49;102494.75;;;10.12;100.00
29909;BME280;36247;51.952;6.146;2023-05-25T00:18:14;102493.44;;;10.02;100.00
29909;BME280;36247;51.952;6.146;2023-05-25T00:20:40;102487.31;;;10.03;100.00
29909;BME280;36247;51.952;6.146;2023-05-25T00:23:06;102490.78;;;10.02;100.00
29909;BME280;36247;51.952;6.146;2023-05-25T00:25:32;102490.78;;;10.02;100.00
29909;BME280;36247;51.952;6.146;2023-05-25T00:27:57;102489.47;;;9.93;100.00
29909;BME280;36247;51.952;6.146;2023-05-25T00:30:23;102489.94;;;9.82;100.00
29909;BME280;36247;51.952;6.146;2023-05-25T00:32:48;102492.31;;;9.76;100.00
29909;BME280;36247;51.952;6.146;2023-05-25T00:35:14;102490.78;;;9.81;100.00
29909;BME280;36247;51.952;6.146;2023-05-25T00:37:39;102494.50;;;9.86;100.00
29909;BME280;36247;51.952;6.146;2023-05-25T00:40:09;102496.69;;;9.76;100.00
29909;BME280;36247;51.952;6.146;2023-05-25T00:42:38;102497.19;;;9.67;100.00
29909;BME280;36247;51.952;6.146;2023-05-25T00:45:07;102488.25;;;9.84;100.00
29909;BME280;36247;51.952;6.146;2023-05-25T00:47:33;102489.47;;;9.52;100.00
29909;BME280;36247;51.952;6.146;2023-05-25T00:49:59;102497.06;;;9.64;100.00
29909;BME280;36247;51.952;6.146;2023-05-25T00:52:25;102491.16;;;9.69;100.00
29909;BME280;36247;51.952;6.146;2023-05-25T00:54:53;102496.69;;;9.76;100.00
29909;BME280;36247;51.952;6.146;2023-05-25T00:57:21;102485.84;;;9.69;100.00
29909;BME280;36247;51.952;6.146;2023-05-25T00:59:50;102484.16;;;9.71;100.00
29909;BME280;36247;51.952;6.146;2023-05-25T01:02:19;102483.16;;;9.48;100.00
29909;BME280;36247;51.952;6.146;2023-05-25T01:04:52;102490.81;;;9.42;100.00
29909;BME280;36247;51.952;6.146;2023-05-25T01:07:22;102486.66;;;9.28;100.00
29909;BME280;36247;51.952;6.146;2023-05-25T01:09:55;102490.63;;;9.38;100.00
29909;BME280;36247;51.952;6.146;2023-05-25T01:12:22;102490.75;;;9.41;100.00
29909;BME280;36247;51.952;6.146;2023-05-25T01:14:48;102495.66;;;9.13;100.00
29909;BME280;36247;51.952;6.146;2023-05-25T01:17:15;102501.34;;;9.41;100.00
29909;BME280;36247;51.952;6.146;2023-05-25T01:19:42;102502.56;;;9.68;100.00
29909;BME280;36247;51.952;6.146;2023-05-25T01:23:11;102502.16;;;9.59;100.00
29909;BME280;36247;51.952;6.146;2023-05-25T01:25:24;102505.03;;;9.44;100.00
29909;BME280;36247;51.952;6.146;2023-05-25T01:30:44;102518.66;;;9.34;100.00
29909;BME280;36247;51.952;6.146;2023-05-25T01:33:12;102507.03;;;9.30;100.00
29909;BME280;36247;51.952;6.146;2023-05-25T01:35:40;102512.88;;;9.43;100.00
29909;BME280;36247;51.952;6.146;2023-05-25T01:38:07;102517.63;;;9.30;100.00
29909;BME280;36247;51.952;6.146;2023-05-25T01:40:36;102520.06;;;9.26;100.00
29909;BME280;36247;51.952;6.146;2023-05-25T01:43:03;102522.63;;;9.24;100.00
29909;BME280;36247;51.952;6.146;2023-05-25T01:45:29;102524.00;;;9.16;100.00
29909;BME280;36247;51.952;6.146;2023-05-25T01:51:00;102528.94;;;9.08;100.00
29909;BME280;36247;51.952;6.146;2023-05-25T01:53:37;102527.19;;;9.09;100.00
29909;BME280;36247;51.952;6.146;2023-05-25T01:56:08;102530.03;;;9.13;100.00
29909;BME280;36247;51.952;6.146;2023-05-25T01:58:48;102525.50;;;9.29;100.00
29909;BME280;36247;51.952;6.146;2023-05-25T02:01:15;102530.69;;;9.08;100.00
29909;BME280;36247;51.952;6.146;2023-05-25T02:03:46;102529.16;;;9.13;100.00
29909;BME280;36247;51.952;6.146;2023-05-25T02:06:15;102523.88;;;9.13;100.00
29909;BME280;36247;51.952;6.146;2023-05-25T02:08:41;102523.78;;;9.11;100.00
29909;BME280;36247;51.952;6.146;2023-05-25T02:11:08;102525.75;;;9.15;100.00
29909;BME280;36247;51.952;6.146;2023-05-25T02:13:35;102524.25;;;9.03;100.00
29909;BME280;36247;51.952;6.146;2023-05-25T02:16:01;102529.22;;;9.14;100.00
29909;BME280;36247;51.952;6.146;2023-05-25T02:18:27;102533.41;;;9.09;100.00
29909;BME280;36247;51.952;6.146;2023-05-25T02:20:54;102530.28;;;9.00;100.00
29909;BME280;36247;51.952;6.146;2023-05-25T02:23:19;102527.97;;;8.88;100.00
29909;BME280;36247;51.952;6.146;2023-05-25T02:25:45;102526.88;;;8.83;100.00
29909;BME280;36247;51.952;6.146;2023-05-25T02:28:11;102530.72;;;8.72;100.00
29909;BME280;36247;51.952;6.146;2023-05-25T02:30:37;102534.00;;;8.66;100.00
29909;BME280;36247;51.952;6.146;2023-05-25T02:33:03;102529.44;;;8.63;100.00
29909;BME280;36247;51.952;6.146;2023-05-25T02:35:31;102527.09;;;8.70;100.00
29909;BME280;36247;51.952;6.146;2023-05-25T02:37:57;102530.28;;;8.62;100.00
29909;BME280;36247;51.952;6.146;2023-05-25T02:40:23;102524.09;;;8.62;100.00
29909;BME280;36247;51.952;6.146;2023-05-25T02:42:48;102525.28;;;8.69;100.00
29909;BME280;36247;51.952;6.146;2023-05-25T02:45:15;102528.63;;;8.64;100.00
29909;BME280;36247;51.952;6.146;2023-05-25T02:47:41;102523.56;;;8.69;100.00
29909;BME280;36247;51.952;6.146;2023-05-25T02:50:07;102531.34;;;8.66;100.00
29909;BME280;36247;51.952;6.146;2023-05-25T02:52:40;102527.56;;;8.61;100.00
29909;BME280;36247;51.952;6.146;2023-05-25T02:55:07;102534.88;;;8.67;100.00
29909;BME280;36247;51.952;6.146;2023-05-25T02:57:37;102540.97;;;8.65;100.00
29909;BME280;36247;51.952;6.146;2023-05-25T03:00:10;102536.34;;;8.60;100.00
29909;BME280;36247;51.952;6.146;2023-05-25T03:02:39;102537.91;;;8.56;100.00
29909;BME280;36247;51.952;6.146;2023-05-25T03:05:07;102546.19;;;8.46;100.00
29909;BME280;36247;51.952;6.146;2023-05-25T03:07:36;102542.66;;;8.45;100.00
29909;BME280;36247;51.952;6.146;2023-05-25T03:10:02;102548.03;;;8.30;100.00
29909;BME280;36247;51.952;6.146;2023-05-25T03:12:28;102549.88;;;8.32;100.00
29909;BME280;36247;51.952;6.146;2023-05-25T03:14:54;102549.59;;;8.27;100.00
29909;BME280;36247;51.952;6.146;2023-05-25T03:17:20;102555.88;;;8.29;100.00
29909;BME280;36247;51.952;6.146;2023-05-25T03:19:47;102561.16;;;8.29;100.00
29909;BME280;36247;51.952;6.146;2023-05-25T03:22:13;102559.72;;;8.36;100.00
29909;BME280;36247;51.952;6.146;2023-05-25T03:24:38;102566.38;;;8.27;100.00
29909;BME280;36247;51.952;6.146;2023-05-25T03:27:06;102568.53;;;8.18;100.00
29909;BME280;36247;51.952;6.146;2023-05-25T03:29:33;102563.50;;;8.57;100.00
29909;BME280;36247;51.952;6.146;2023-05-25T03:31:58;102557.31;;;8.40;100.00
29909;BME280;36247;51.952;6.146;2023-05-25T03:34:27;102567.41;;;8.47;100.00
29909;BME280;36247;51.952;6.146;2023-05-25T03:36:53;102570.22;;;8.34;100.00
29909;BME280;36247;51.952;6.146;2023-05-25T03:39:19;102576.31;;;8.50;100.00
29909;BME280;36247;51.952;6.146;2023-05-25T03:41:48;102579.34;;;8.57;100.00
29909;BME280;36247;51.952;6.146;2023-05-25T03:44:14;102581.91;;;8.56;100.00
29909;BME280;36247;51.952;6.146;2023-05-25T03:46:40;102576.69;;;8.57;100.00
29909;BME280;36247;51.952;6.146;2023-05-25T03:49:06;102579.34;;;8.57;100.00
29909;BME280;36247;51.952;6.146;2023-05-25T03:51:33;102580.75;;;8.51;100.00
29909;BME280;36247;51.952;6.146;2023-05-25T03:53:59;102589.31;;;8.45;100.00
29909;BME280;36247;51.952;6.146;2023-05-25T03:56:24;102577.97;;;8.47;100.00
29909;BME280;36247;51.952;6.146;2023-05-25T03:58:50;102577.56;;;8.40;100.00
29909;BME280;36247;51.952;6.146;2023-05-25T04:01:19;102574.56;;;8.50;100.00
29909;BME280;36247;51.952;6.146;2023-05-25T04:03:44;102580.91;;;8.54;100.00
29909;BME280;36247;51.952;6.146;2023-05-25T04:06:10;102573.84;;;8.53;100.00
29909;BME280;36247;51.952;6.146;2023-05-25T04:08:44;102575.56;;;8.52;100.00
29909;BME280;36247;51.952;6.146;2023-05-25T04:11:10;102578.19;;;8.52;100.00
29909;BME280;36247;51.952;6.146;2023-05-25T04:13:38;102581.47;;;8.46;100.00
29909;BME280;36247;51.952;6.146;2023-05-25T04:16:06;102584.84;;;8.27;100.00
29909;BME280;36247;51.952;6.146;2023-05-25T04:18:33;102585.91;;;8.31;100.00
29909;BME280;36247;51.952;6.146;2023-05-25T04:20:58;102585.06;;;8.49;100.00
29909;BME280;36247;51.952;6.146;2023-05-25T04:23:25;102591.94;;;8.45;100.00
29909;BME280;36247;51.952;6.146;2023-05-25T04:25:52;102593.31;;;8.55;100.00
29909;BME280;36247;51.952;6.146;2023-05-25T04:28:19;102598.91;;;8.79;100.00
29909;BME280;36247;51.952;6.146;2023-05-25T04:30:54;102590.59;;;8.89;100.00
29909;BME280;36247;51.952;6.146;2023-05-25T04:33:37;102591.81;;;8.78;100.00
29909;BME280;36247;51.952;6.146;2023-05-25T04:36:22;102594.53;;;8.97;100.00
29909;BME280;36247;51.952;6.146;2023-05-25T04:38:48;102604.72;;;8.90;100.00
29909;BME280;36247;51.952;6.146;2023-05-25T04:41:19;102598.13;;;8.99;100.00
29909;BME280;36247;51.952;6.146;2023-05-25T04:43:49;102594.31;;;8.93;100.00
29909;BME280;36247;51.952;6.146;2023-05-25T04:46:16;102603.28;;;8.96;100.00
29909;BME280;36247;51.952;6.146;2023-05-25T04:48:43;102600.94;;;9.03;100.00
29909;BME280;36247;51.952;6.146;2023-05-25T04:51:12;102608.34;;;9.10;100.00
29909;BME280;36247;51.952;6.146;2023-05-25T04:53:39;102603.00;;;9.28;100.00
29909;BME280;36247;51.952;6.146;2023-05-25T04:56:07;102602.63;;;9.38;100.00
29909;BME280;36247;51.952;6.146;2023-05-25T04:58:42;102608.72;;;9.37;100.00
29909;BME280;36247;51.952;6.146;2023-05-25T05:01:08;102607.91;;;9.38;100.00
29909;BME280;36247;51.952;6.146;2023-05-25T05:03:36;102614.84;;;9.54;100.00
29909;BME280;36247;51.952;6.146;2023-05-25T05:06:02;102616.75;;;9.39;100.00
29909;BME280;36247;51.952;6.146;2023-05-25T05:08:32;102620.63;;;9.27;100.00
29909;BME280;36247;51.952;6.146;2023-05-25T05:10:57;102621.31;;;9.61;100.00
29909;BME280;36247;51.952;6.146;2023-05-25T05:13:27;102637.06;;;9.77;100.00
29909;BME280;36247;51.952;6.146;2023-05-25T05:15:54;102622.91;;;9.77;100.00
29909;BME280;36247;51.952;6.146;2023-05-25T05:18:20;102632.16;;;9.67;100.00
29909;BME280;36247;51.952;6.146;2023-05-25T05:20:49;102638.88;;;9.78;100.00
29909;BME280;36247;51.952;6.146;2023-05-25T05:23:18;102631.41;;;9.89;100.00
29909;BME280;36247;51.952;6.146;2023-05-25T05:25:44;102635.03;;;10.11;100.00
29909;BME280;36247;51.952;6.146;2023-05-25T05:28:10;102631.34;;;10.07;100.00
29909;BME280;36247;51.952;6.146;2023-05-25T05:30:39;102636.81;;;10.12;100.00
29909;BME280;36247;51.952;6.146;2023-05-25T05:33:07;102628.31;;;10.38;100.00
29909;BME280;36247;51.952;6.146;2023-05-25T05:35:42;102632.59;;;10.35;100.00
29909;BME280;36247;51.952;6.146;2023-05-25T05:38:15;102641.13;;;10.29;100.00
29909;BME280;36247;51.952;6.146;2023-05-25T05:40:41;102638.03;;;10.38;100.00
29909;BME280;36247;51.952;6.146;2023-05-25T05:43:10;102644.34;;;10.41;100.00
29909;BME280;36247;51.952;6.146;2023-05-25T05:45:37;102648.00;;;10.44;100.00
29909;BME280;36247;51.952;6.146;2023-05-25T05:48:06;102648.84;;;10.64;100.00
29909;BME280;36247;51.952;6.146;2023-05-25T05:50:37;102651.69;;;10.68;100.00
29909;BME280;36247;51.952;6.146;2023-05-25T05:53:07;102652.66;;;10.70;100.00
29909;BME280;36247;51.952;6.146;2023-05-25T05:55:36;102651.75;;;10.70;100.00
29909;BME280;36247;51.952;6.146;2023-05-25T05:58:02;102652.13;;;10.58;100.00
29909;BME280;36247;51.952;6.146;2023-05-25T06:00:27;102652.91;;;10.76;100.00
29909;BME280;36247;51.952;6.146;2023-05-25T06:02:53;102656.50;;;11.00;100.00
29909;BME280;36247;51.952;6.146;2023-05-25T06:05:22;102660.94;;;10.99;100.00
29909;BME280;36247;51.952;6.146;2023-05-25T06:07:50;102657.41;;;11.21;100.00
29909;BME280;36247;51.952;6.146;2023-05-25T06:10:18;102665.06;;;11.36;100.00
29909;BME280;36247;51.952;6.146;2023-05-25T06:12:44;102656.38;;;11.40;100.00
29909;BME280;36247;51.952;6.146;2023-05-25T06:15:10;102657.59;;;11.49;100.00
29909;BME280;36247;51.952;6.146;2023-05-25T06:17:38;102665.56;;;11.49;100.00
29909;BME280;36247;51.952;6.146;2023-05-25T06:20:08;102671.63;;;11.91;100.00
29909;BME280;36247;51.952;6.146;2023-05-25T06:22:36;102670.53;;;11.86;100.00
29909;BME280;36247;51.952;6.146;2023-05-25T06:25:02;102673.13;;;11.85;100.00
29909;BME280;36247;51.952;6.146;2023-05-25T06:27:30;102673.13;;;11.85;100.00
29909;BME280;36247;51.952;6.146;2023-05-25T06:29:56;102678.59;;;12.12;100.00
29909;BME280;36247;51.952;6.146;2023-05-25T06:32:22;102677.31;;;12.25;100.00
29909;BME280;36247;51.952;6.146;2023-05-25T06:34:48;102681.19;;;12.34;100.00
29909;BME280;36247;51.952;6.146;2023-05-25T06:37:15;102673.94;;;12.55;100.00
29909;BME280;36247;51.952;6.146;2023-05-25T06:39:41;102676.59;;;12.55;100.00
29909;BME280;36247;51.952;6.146;2023-05-25T06:42:09;102671.69;;;12.67;100.00
29909;BME280;36247;51.952;6.146;2023-05-25T06:44:37;102679.34;;;12.83;100.00
29909;BME280;36247;51.952;6.146;2023-05-25T06:47:08;102676.78;;;12.86;100.00
29909;BME280;36247;51.952;6.146;2023-05-25T06:49:36;102671.66;;;12.93;100.00
29909;BME280;36247;51.952;6.146;2023-05-25T06:52:02;102676.19;;;12.95;100.00
29909;BME280;36247;51.952;6.146;2023-05-25T06:54:27;102673.97;;;12.82;100.00
29909;BME280;36247;51.952;6.146;2023-05-25T06:56:53;102676.94;;;12.91;100.00
29909;BME280;36247;51.952;6.146;2023-05-25T06:59:19;102673.50;;;13.48;100.00
29909;BME280;36247;51.952;6.146;2023-05-25T07:01:48;102678.00;;;13.51;100.00
29909;BME280;36247;51.952;6.146;2023-05-25T07:04:13;102678.16;;;13.55;100.00
29909;BME280;36247;51.952;6.146;2023-05-25T07:06:44;102680.84;;;13.55;100.00
29909;BME280;36247;51.952;6.146;2023-05-25T07:09:10;102679.06;;;13.56;100.00
29909;BME280;36247;51.952;6.146;2023-05-25T07:11:37;102677.34;;;13.58;100.00
29909;BME280;36247;51.952;6.146;2023-05-25T07:14:02;102681.72;;;13.29;100.00
29909;BME280;36247;51.952;6.146;2023-05-25T07:16:28;102680.22;;;13.66;100.00
29909;BME280;36247;51.952;6.146;2023-05-25T07:18:53;102683.56;;;13.87;100.00
29909;BME280;36247;51.952;6.146;2023-05-25T07:21:19;102677.16;;;13.82;100.00
29909;BME280;36247;51.952;6.146;2023-05-25T07:23:45;102678.84;;;13.79;100.00
29909;BME280;36247;51.952;6.146;2023-05-25T07:26:12;102679.88;;;13.84;100.00
29909;BME280;36247;51.952;6.146;2023-05-25T07:28:39;102681.13;;;13.95;100.00
29909;BME280;36247;51.952;6.146;2023-05-25T07:31:09;102689.78;;;13.88;100.00
29909;BME280;36247;51.952;6.146;2023-05-25T07:33:37;102691.50;;;13.86;100.00
29909;BME280;36247;51.952;6.146;2023-05-25T07:36:02;102689.50;;;14.09;100.00
29909;BME280;36247;51.952;6.146;2023-05-25T07:38:31;102688.84;;;14.48;100.00
29909;BME280;36247;51.952;6.146;2023-05-25T07:40:56;102694.38;;;14.24;100.00
29909;BME280;36247;51.952;6.146;2023-05-25T07:43:26;102696.41;;;14.33;100.00
29909;BME280;36247;51.952;6.146;2023-05-25T07:45:51;102691.16;;;14.36;100.00
29909;BME280;36247;51.952;6.146;2023-05-25T07:48:20;102686.66;;;14.65;100.00
29909;BME280;36247;51.952;6.146;2023-05-25T07:50:48;102692.69;;;14.59;100.00
29909;BME280;36247;51.952;6.146;2023-05-25T07:53:15;102691.94;;;14.98;100.00
29909;BME280;36247;51.952;6.146;2023-05-25T07:55:41;102697.91;;;14.88;100.00
29909;BME280;36247;51.952;6.146;2023-05-25T07:58:08;102703.53;;;14.99;100.00
29909;BME280;36247;51.952;6.146;2023-05-25T08:00:35;102707.47;;;15.15;100.00
29909;BME280;36247;51.952;6.146;2023-05-25T08:03:02;102708.00;;;15.37;100.00
29909;BME280;36247;51.952;6.146;2023-05-25T08:05:28;102718.41;;;14.89;100.00
29909;BME280;36247;51.952;6.146;2023-05-25T08:07:54;102714.00;;;15.26;100.00
29909;BME280;36247;51.952;6.146;2023-05-25T08:10:20;102725.72;;;15.33;100.00
29909;BME280;36247;51.952;6.146;2023-05-25T08:12:46;102720.41;;;15.34;100.00
29909;BME280;36247;51.952;6.146;2023-05-25T08:15:12;102721.22;;;14.95;100.00
29909;BME280;36247;51.952;6.146;2023-05-25T08:17:38;102715.38;;;14.75;100.00
29909;BME280;36247;51.952;6.146;2023-05-25T08:20:07;102724.03;;;14.67;100.00
29909;BME280;36247;51.952;6.146;2023-05-25T08:22:37;102721.53;;;15.44;100.00
29909;BME280;36247;51.952;6.146;2023-05-25T08:25:03;102724.03;;;15.37;100.00
29909;BME280;36247;51.952;6.146;2023-05-25T08:27:33;102725.13;;;14.75;100.00
29909;BME280;36247;51.952;6.146;2023-05-25T08:29:59;102725.13;;;15.08;100.00
29909;BME280;36247;51.952;6.146;2023-05-25T08:32:24;102734.66;;;15.33;100.00
29909;BME280;36247;51.952;6.146;2023-05-25T08:34:50;102728.41;;;15.34;100.00
29909;BME280;36247;51.952;6.146;2023-05-25T08:37:17;102724.81;;;14.96;100.00
29909;BME280;36247;51.952;6.146;2023-05-25T08:39:45;102730.16;;;15.32;100.00
29909;BME280;36247;51.952;6.146;2023-05-25T08:42:11;102724.91;;;15.36;100.00
29909;BME280;36247;51.952;6.146;2023-05-25T08:44:37;102724.75;;;15.66;100.00
29909;BME280;36247;51.952;6.146;2023-05-25T08:47:07;102723.84;;;15.29;100.00
29909;BME280;36247;51.952;6.146;2023-05-25T08:49:38;102733.34;;;15.18;100.00
29909;BME280;36247;51.952;6.146;2023-05-25T08:52:04;102735.91;;;15.13;100.00
29909;BME280;36247;51.952;6.146;2023-05-25T08:54:37;102737.69;;;14.79;100.00
29909;BME280;36247;51.952;6.146;2023-05-25T09:04:53;102741.47;;;14.23;100.00
29909;BME280;36247;51.952;6.146;2023-05-25T09:07:19;102736.38;;;14.33;100.00
29909;BME280;36247;51.952;6.146;2023-05-25T09:09:47;102745.63;;;14.44;100.00
29909;BME280;36247;51.952;6.146;2023-05-25T09:12:15;102742.25;;;14.83;100.00
29909;BME280;36247;51.952;6.146;2023-05-25T09:14:41;102743.25;;;14.55;100.00
29909;BME280;36247;51.952;6.146;2023-05-25T09:17:12;102746.47;;;14.75;100.00
29909;BME280;36247;51.952;6.146;2023-05-25T09:19:38;102753.06;;;14.56;100.00
29909;BME280;36247;51.952;6.146;2023-05-25T09:22:04;102746.31;;;15.02;100.00
29909;BME280;36247;51.952;6.146;2023-05-25T09:24:33;102743.59;;;15.36;100.00
29909;BME280;36247;51.952;6.146;2023-05-25T09:27:12;102741.06;;;15.42;100.00
29909;BME280;36247;51.952;6.146;2023-05-25T09:29:37;102744.78;;;15.47;100.00
29909;BME280;36247;51.952;6.146;2023-05-25T09:32:04;102741.00;;;15.77;100.00
29909;BME280;36247;51.952;6.146;2023-05-25T09:34:33;102744.22;;;16.43;100.00
29909;BME280;36247;51.952;6.146;2023-05-25T09:37:02;102737.44;;;17.10;100.00
29909;BME280;36247;51.952;6.146;2023-05-25T09:39:29;102736.09;;;17.37;100.00
29909;BME280;36247;51.952;6.146;2023-05-25T09:41:55;102732.00;;;17.61;100.00
29909;BME280;36247;51.952;6.146;2023-05-25T09:44:21;102729.63;;;17.21;100.00
29909;BME280;36247;51.952;6.146;2023-05-25T09:46:48;102733.00;;;16.62;100.00
29909;BME280;36247;51.952;6.146;2023-05-25T09:49:16;102742.06;;;16.70;100.00
29909;BME280;36247;51.952;6.146;2023-05-25T09:51:41;102729.59;;;17.20;100.00
29909;BME280;36247;51.952;6.146;2023-05-25T09:54:09;102723.16;;;18.34;100.00
29909;BME280;36247;51.952;6.146;2023-05-25T09:56:37;102722.66;;;18.67;100.00
29909;BME280;36247;51.952;6.146;2023-05-25T09:59:03;102719.78;;;19.49;100.00
29909;BME280;36247;51.952;6.146;2023-05-25T10:01:31;102721.66;;;19.64;100.00
29909;BME280;36247;51.952;6.146;2023-05-25T10:03:56;102724.06;;;19.24;100.00
29909;BME280;36247;51.952;6.146;2023-05-25T10:06:24;102723.22;;;18.39;100.00
29909;BME280;36247;51.952;6.146;2023-05-25T10:08:51;102727.56;;;19.13;100.00
29909;BME280;36247;51.952;6.146;2023-05-25T10:11:20;102723.44;;;19.59;100.00
29909;BME280;36247;51.952;6.146;2023-05-25T10:13:49;102726.47;;;20.25;100.00
29909;BME280;36247;51.952;6.146;2023-05-25T10:16:17;102716.78;;;20.83;100.00
29909;BME280;36247;51.952;6.146;2023-05-25T10:18:47;102718.56;;;21.07;100.00
29909;BME280;36247;51.952;6.146;2023-05-25T10:21:20;102714.88;;;21.77;100.00
29909;BME280;36247;51.952;6.146;2023-05-25T10:23:50;102707.78;;;21.02;100.00
29909;BME280;36247;51.952;6.146;2023-05-25T10:26:18;102718.28;;;18.80;100.00
29909;BME280;36247;51.952;6.146;2023-05-25T10:28:49;102719.00;;;18.62;100.00
29909;BME280;36247;51.952;6.146;2023-05-25T10:31:17;102726.34;;;18.01;100.00
29909;BME280;36247;51.952;6.146;2023-05-25T10:33:44;102711.81;;;18.61;100.00
29909;BME280;36247;51.952;6.146;2023-05-25T10:36:11;102720.41;;;19.12;100.00
29909;BME280;36247;51.952;6.146;2023-05-25T10:38:41;102726.31;;;17.99;100.00
29909;BME280;36247;51.952;6.146;2023-05-25T10:41:09;102726.59;;;17.56;100.00
29909;BME280;36247;51.952;6.146;2023-05-25T10:43:37;102729.19;;;17.52;100.00
29909;BME280;36247;51.952;6.146;2023-05-25T10:46:08;102732.00;;;17.61;100.00
29909;BME280;36247;51.952;6.146;2023-05-25T10:48:38;102732.56;;;17.38;100.00
29909;BME280;36247;51.952;6.146;2023-05-25T10:51:07;102734.16;;;17.87;100.00
29909;BME280;36247;51.952;6.146;2023-05-25T10:53:33;102733.19;;;17.82;100.00
29909;BME280;36247;51.952;6.146;2023-05-25T10:56:07;102718.09;;;18.60;100.00
29909;BME280;36247;51.952;6.146;2023-05-25T10:58:41;102723.44;;;17.88;100.00
29909;BME280;36247;51.952;6.146;2023-05-25T11:01:10;102717.59;;;18.15;100.00
29909;BME280;36247;51.952;6.146;2023-05-25T11:06:09;102717.63;;;18.17;100.00
29909;BME280;36247;51.952;6.146;2023-05-25T11:08:59;102717.81;;;17.67;100.00
29909;BME280;36247;51.952;6.146;2023-05-25T11:14:29;102717.06;;;17.78;100.00
29909;BME280;36247;51.952;6.146;2023-05-25T11:17:21;102718.00;;;17.82;100.00
29909;BME280;36247;51.952;6.146;2023-05-25T11:19:50;102718.28;;;17.99;100.00
29909;BME280;36247;51.952;6.146;2023-05-25T11:22:30;102723.16;;;18.34;100.00
29909;BME280;36247;51.952;6.146;2023-05-25T11:24:58;102712.25;;;18.17;100.00
29909;BME280;36247;51.952;6.146;2023-05-25T11:27:29;102712.47;;;17.70;100.00
29909;BME280;36247;51.952;6.146;2023-05-25T11:29:55;102713.13;;;17.52;100.00
29909;BME280;36247;51.952;6.146;2023-05-25T11:32:23;102714.13;;;17.61;100.00
29909;BME280;36247;51.952;6.146;2023-05-25T11:34:51;102712.63;;;17.80;100.00
29909;BME280;36247;51.952;6.146;2023-05-25T11:37:19;102709.97;;;17.84;100.00
29909;BME280;36247;51.952;6.146;2023-05-25T11:39:48;102704.69;;;18.60;100.00
29909;BME280;36247;51.952;6.146;2023-05-25T11:42:16;102701.38;;;18.88;100.00
29909;BME280;36247;51.952;6.146;2023-05-25T11:44:43;102696.56;;;18.53;100.00
29909;BME280;36247;51.952;6.146;2023-05-25T11:47:10;102705.38;;;18.42;100.00
29909;BME280;36247;51.952;6.146;2023-05-25T11:49:44;102701.81;;;18.46;100.00
29909;BME280;36247;51.952;6.146;2023-05-25T11:52:16;102702.47;;;18.24;100.00
29909;BME280;36247;51.952;6.146;2023-05-25T11:54:43;102703.44;;;18.29;100.00
29909;BME280;36247;51.952;6.146;2023-05-25T11:57:23;102698.78;;;18.12;100.00
29909;BME280;36247;51.952;6.146;2023-05-25T11:59:58;102697.81;;;18.09;100.00
29909;BME280;36247;51.952;6.146;2023-05-25T12:02:26;102691.59;;;18.10;100.00
29909;BME280;36247;51.952;6.146;2023-05-25T12:07:19;102684.56;;;19.13;100.00
29909;BME280;36247;51.952;6.146;2023-05-25T12:09:45;102670.91;;;21.38;97.93
29909;BME280;36247;51.952;6.146;2023-05-25T12:12:10;102660.66;;;22.36;87.44
29909;BME280;36247;51.952;6.146;2023-05-25T12:14:46;102659.09;;;21.81;81.30
29909;BME280;36247;51.952;6.146;2023-05-25T12:17:18;102668.06;;;19.92;86.29
29909;BME280;36247;51.952;6.146;2023-05-25T12:19:45;102676.72;;;19.41;92.13
29909;BME280;36247;51.952;6.146;2023-05-25T12:22:12;102670.91;;;20.50;85.38
29909;BME280;36247;51.952;6.146;2023-05-25T12:24:39;102673.03;;;19.25;95.14
29909;BME280;36247;51.952;6.146;2023-05-25T12:27:20;102676.41;;;18.99;93.87
29909;BME280;36247;51.952;6.146;2023-05-25T12:29:49;102675.03;;;19.59;90.80
29909;BME280;36247;51.952;6.146;2023-05-25T12:32:17;102657.31;;;21.81;82.25
29909;BME280;36247;51.952;6.146;2023-05-25T12:34:43;102662.88;;;20.90;82.73
29909;BME280;36247;51.952;6.146;2023-05-25T12:37:20;102665.56;;;20.75;86.76
29909;BME280;36247;51.952;6.146;2023-05-25T12:39:48;102669.16;;;21.03;73.39
29909;BME280;36247;51.952;6.146;2023-05-25T12:42:23;102667.38;;;20.99;72.27
29909;BME280;36247;51.952;6.146;2023-05-25T12:44:55;102675.22;;;19.99;84.21
29909;BME280;36247;51.952;6.146;2023-05-25T12:47:26;102661.94;;;21.25;80.34
29909;BME280;36247;51.952;6.146;2023-05-25T12:50:09;102657.94;;;22.38;75.17
29909;BME280;36247;51.952;6.146;2023-05-25T12:52:42;102657.22;;;22.01;67.19
29909;BME280;36247;51.952;6.146;2023-05-25T12:55:25;102660.16;;;21.12;77.15
29909;BME280;36247;51.952;6.146;2023-05-25T13:00:24;102669.97;;;20.30;84.65
29909;BME280;36247;51.952;6.146;2023-05-25T13:02:51;102665.25;;;19.74;92.08
29909;BME280;36247;51.952;6.146;2023-05-25T13:05:18;102670.22;;;19.08;92.81
29909;BME280;36247;51.952;6.146;2023-05-25T13:07:45;102673.88;;;19.18;100.00
29909;BME280;36247;51.952;6.146;2023-05-25T13:10:11;102677.53;;;19.28;100.00
29909;BME280;36247;51.952;6.146;2023-05-25T13:12:38;102665.41;;;20.01;90.35
29909;BME280;36247;51.952;6.146;2023-05-25T13:15:08;102666.34;;;20.18;85.76